createdAt,value
2017-12-12T00:01:52.283Z,18.23
2017-12-12T00:04:19.780Z,18.67
2017-12-12T00:06:47.305Z,17.20
2017-12-12T00:09:14.808Z,15.90
2017-12-12T00:11:42.290Z,15.00
2017-12-12T00:14:10.609Z,11.77
2017-12-12T00:16:38.875Z,19.00
2017-12-12T00:19:07.141Z,13.57
2017-12-12T00:21:34.709Z,15.50
2017-12-12T00:24:02.210Z,10.97
2017-12-12T00:26:29.728Z,10.67
2017-12-12T00:28:57.642Z,13.70
2017-12-12T00:31:25.731Z,11.83
2017-12-12T00:33:53.260Z,9.23
2017-12-12T00:36:21.512Z,10.40
2017-12-12T00:38:50.640Z,10.90
2017-12-12T00:41:18.950Z,17.13
2017-12-12T00:43:48.967Z,16.90
2017-12-12T00:46:16.501Z,12.17
2017-12-12T00:48:44.918Z,11.80
2017-12-12T00:51:12.389Z,11.47
2017-12-12T00:53:39.872Z,18.33
2017-12-12T00:56:07.365Z,16.07
2017-12-12T00:58:35.807Z,8.87
2017-12-12T01:01:03.325Z,13.03
2017-12-12T01:03:31.601Z,10.37
2017-12-12T01:05:59.832Z,9.13
2017-12-12T01:08:27.357Z,6.80
2017-12-12T01:10:55.662Z,7.50
2017-12-12T01:13:23.858Z,6.53
2017-12-12T01:15:51.495Z,7.80
2017-12-12T01:18:19.013Z,12.80
2017-12-12T01:20:46.484Z,12.83
2017-12-12T01:23:14.081Z,8.03
2017-12-12T01:25:42.309Z,6.20
2017-12-12T01:28:09.788Z,6.20
2017-12-12T01:30:38.045Z,7.33
2017-12-12T01:33:05.821Z,9.27
2017-12-12T01:35:33.324Z,9.70
2017-12-12T01:38:01.591Z,9.53
2017-12-12T01:40:29.139Z,6.30
2017-12-12T01:42:57.417Z,11.43
2017-12-12T01:45:25.759Z,7.33
2017-12-12T01:47:53.249Z,9.53
2017-12-12T01:50:21.607Z,9.80
2017-12-12T01:52:49.064Z,7.43
2017-12-12T01:55:16.574Z,7.60
2017-12-12T01:57:44.173Z,8.93
2017-12-12T02:00:12.430Z,6.53
2017-12-12T02:02:39.963Z,5.47
2017-12-12T02:05:07.446Z,9.20
2017-12-12T02:07:34.959Z,6.23
2017-12-12T02:10:02.444Z,7.50
2017-12-12T02:12:29.959Z,3.47
2017-12-12T02:14:58.220Z,3.60
2017-12-12T02:17:25.900Z,3.03
2017-12-12T02:19:53.383Z,3.00
2017-12-12T02:22:20.883Z,2.60
2017-12-12T02:24:48.400Z,3.80
2017-12-12T02:27:16.677Z,7.33
2017-12-12T02:29:44.949Z,5.23
2017-12-12T02:32:13.474Z,2.67
2017-12-12T02:34:40.981Z,6.17
2017-12-12T02:37:08.556Z,3.10
2017-12-12T02:39:36.115Z,1.93
2017-12-12T02:42:03.609Z,4.83
2017-12-12T02:44:31.086Z,2.47
2017-12-12T02:46:58.581Z,2.40
2017-12-12T02:49:26.114Z,4.63
2017-12-12T02:51:53.604Z,3.20
2017-12-12T02:54:21.109Z,2.40
2017-12-12T02:56:49.382Z,2.93
2017-12-12T02:59:17.662Z,5.20
2017-12-12T03:01:45.932Z,2.83
2017-12-12T03:04:13.714Z,6.80
2017-12-12T03:06:41.233Z,3.13
2017-12-12T03:09:08.716Z,7.13
2017-12-12T03:11:36.318Z,1.43
2017-12-12T03:14:05.421Z,3.80
2017-12-12T03:16:33.663Z,4.03
2017-12-12T03:19:01.169Z,1.83
2017-12-12T03:21:29.427Z,2.47
2017-12-12T03:23:56.930Z,2.10
2017-12-12T03:26:24.471Z,2.30
2017-12-12T03:28:52.825Z,1.30
2017-12-12T03:31:20.371Z,2.93
2017-12-12T03:33:47.877Z,6.53
2017-12-12T03:36:15.425Z,13.43
2017-12-12T03:38:43.724Z,1.70
2017-12-12T03:41:11.994Z,2.27
2017-12-12T03:43:40.244Z,1.40
2017-12-12T03:46:07.724Z,3.60
2017-12-12T03:48:36.837Z,2.70
2017-12-12T03:51:05.088Z,0.97
2017-12-12T03:53:32.633Z,1.13
2017-12-12T03:56:00.139Z,1.80
2017-12-12T03:58:28.400Z,2.57
2017-12-12T04:00:56.968Z,1.73
2017-12-12T04:03:24.609Z,1.20
2017-12-12T04:05:52.126Z,3.23
2017-12-12T04:08:19.600Z,3.63
2017-12-12T04:10:47.595Z,3.40
2017-12-12T04:13:15.072Z,2.17
2017-12-12T04:15:42.561Z,2.27
2017-12-12T04:18:10.038Z,1.10
2017-12-12T04:20:37.544Z,1.13
2017-12-12T04:23:05.122Z,0.90
2017-12-12T04:25:32.603Z,0.97
2017-12-12T04:28:00.110Z,2.57
2017-12-12T04:30:27.592Z,2.20
2017-12-12T04:32:56.241Z,1.20
2017-12-12T04:35:23.913Z,0.97
2017-12-12T04:37:51.388Z,1.67
2017-12-12T04:40:18.997Z,5.20
2017-12-12T04:42:46.921Z,0.90
2017-12-12T04:45:16.032Z,1.77
2017-12-12T04:47:44.286Z,1.37
2017-12-12T04:50:11.781Z,1.90
2017-12-12T04:52:40.345Z,3.67
2017-12-12T04:55:08.596Z,1.10
2017-12-12T04:57:36.104Z,2.10
2017-12-12T05:00:03.593Z,1.13
2017-12-12T05:02:31.119Z,0.97
2017-12-12T05:04:58.661Z,1.20
2017-12-12T05:07:27.239Z,2.13
2017-12-12T05:09:54.728Z,1.47
2017-12-12T05:12:23.513Z,4.10
2017-12-12T05:14:51.062Z,1.30
2017-12-12T05:17:18.580Z,1.03
2017-12-12T05:19:46.838Z,1.10
2017-12-12T05:22:14.926Z,1.03
2017-12-12T05:24:43.542Z,1.30
2017-12-12T05:27:11.039Z,1.30
2017-12-12T05:29:38.760Z,1.73
2017-12-12T05:32:07.026Z,1.27
2017-12-12T05:34:35.284Z,1.30
2017-12-12T05:37:02.781Z,1.67
2017-12-12T05:39:31.337Z,2.30
2017-12-12T05:41:59.675Z,2.83
2017-12-12T05:44:28.216Z,1.40
2017-12-12T05:46:55.789Z,0.90
2017-12-12T05:49:24.102Z,1.53
2017-12-12T05:51:51.724Z,1.43
2017-12-12T05:54:19.756Z,4.67
2017-12-12T05:56:47.260Z,2.30
2017-12-12T05:59:15.754Z,4.23
2017-12-12T06:01:43.330Z,1.90
2017-12-12T06:04:11.577Z,1.10
2017-12-12T06:06:39.072Z,1.80
2017-12-12T06:09:07.319Z,1.53
2017-12-12T06:11:34.796Z,1.80
2017-12-12T06:14:02.285Z,4.00
2017-12-12T06:16:30.549Z,1.40
2017-12-12T06:18:58.125Z,2.53
2017-12-12T06:21:26.398Z,7.33
2017-12-12T06:23:54.661Z,7.37
2017-12-12T06:26:22.265Z,3.23
2017-12-12T06:28:49.765Z,3.10
2017-12-12T06:31:17.241Z,2.57
2017-12-12T06:33:44.725Z,3.93
2017-12-12T06:36:12.208Z,4.87
2017-12-12T06:38:40.255Z,5.73
2017-12-12T06:41:08.374Z,3.47
2017-12-12T06:43:35.871Z,3.07
2017-12-12T06:46:03.332Z,2.80
2017-12-12T06:48:30.817Z,1.83
2017-12-12T06:50:58.290Z,6.90
2017-12-12T06:53:25.801Z,2.63
2017-12-12T06:55:53.351Z,2.77
2017-12-12T06:58:21.542Z,3.53
2017-12-12T07:00:49.030Z,3.53
2017-12-12T07:03:16.563Z,4.00
2017-12-12T07:05:44.049Z,3.47
2017-12-12T07:08:11.565Z,1.27
2017-12-12T07:10:39.836Z,0.80
2017-12-12T07:13:09.277Z,1.67
2017-12-12T07:15:36.738Z,2.40
2017-12-12T07:18:04.277Z,2.40
2017-12-12T07:20:32.589Z,1.17
2017-12-12T07:23:00.121Z,1.57
2017-12-12T07:25:28.365Z,1.37
2017-12-12T07:27:56.046Z,2.97
2017-12-12T07:30:23.532Z,2.03
2017-12-12T07:32:51.821Z,0.80
2017-12-12T07:35:20.084Z,1.30
2017-12-12T07:37:48.572Z,1.03
2017-12-12T07:40:16.805Z,2.50
2017-12-12T07:42:44.343Z,3.17
2017-12-12T07:45:11.984Z,3.27
2017-12-12T07:47:39.521Z,1.33
2017-12-12T07:50:08.513Z,1.27
2017-12-12T07:52:36.635Z,1.23
2017-12-12T07:55:04.165Z,1.37
2017-12-12T07:57:31.723Z,2.40
2017-12-12T07:59:59.312Z,4.00
2017-12-12T08:02:27.600Z,7.30
2017-12-12T08:04:55.862Z,1.20
2017-12-12T08:07:23.373Z,2.50
2017-12-12T08:09:50.940Z,0.73
2017-12-12T08:12:18.484Z,2.43
2017-12-12T08:14:46.227Z,1.60
2017-12-12T08:17:14.556Z,1.27
2017-12-12T08:19:43.182Z,4.20
2017-12-12T08:22:10.759Z,1.43
2017-12-12T08:24:39.447Z,2.20
2017-12-12T08:27:07.014Z,2.63
2017-12-12T08:29:36.307Z,1.30
2017-12-12T08:32:04.588Z,1.40
2017-12-12T08:34:32.157Z,3.40
2017-12-12T08:36:59.754Z,2.77
2017-12-12T08:39:29.226Z,5.17
2017-12-12T08:41:57.487Z,3.17
2017-12-12T08:44:25.217Z,4.60
2017-12-12T08:46:54.180Z,2.60
2017-12-12T08:49:22.040Z,6.53
2017-12-12T08:51:50.743Z,2.37
2017-12-12T08:54:19.334Z,3.40
2017-12-12T08:56:47.294Z,5.20
2017-12-12T08:59:15.373Z,3.90
2017-12-12T09:01:44.023Z,5.90
2017-12-12T09:04:12.464Z,3.90
2017-12-12T09:06:40.790Z,4.57
2017-12-12T09:09:08.297Z,4.40
2017-12-12T09:11:35.776Z,4.63
2017-12-12T09:14:04.441Z,4.83
2017-12-12T09:16:31.961Z,3.20
2017-12-12T09:18:59.453Z,3.30
2017-12-12T09:21:27.774Z,3.00
2017-12-12T09:23:56.438Z,1.93
2017-12-12T09:26:23.941Z,8.15
2017-12-12T09:28:51.790Z,3.47
2017-12-12T09:31:20.108Z,3.62
2017-12-12T09:33:47.580Z,2.80
2017-12-12T09:36:15.165Z,2.87
2017-12-12T09:38:42.737Z,2.05
2017-12-12T09:41:11.033Z,2.85
2017-12-12T09:43:41.880Z,2.37
2017-12-12T09:46:10.252Z,2.25
2017-12-12T09:48:37.968Z,4.60
2017-12-12T09:51:05.687Z,1.70
2017-12-12T09:53:33.271Z,5.95
2017-12-12T09:56:01.578Z,2.47
2017-12-12T09:58:29.385Z,2.70
2017-12-12T10:00:57.976Z,3.58
2017-12-12T10:03:26.826Z,2.87
2017-12-12T10:05:54.600Z,3.53
2017-12-12T10:08:22.296Z,3.87
2017-12-12T10:10:50.012Z,4.50
2017-12-12T10:13:18.395Z,2.75
2017-12-12T10:15:47.494Z,2.08
2017-12-12T10:18:15.758Z,2.25
2017-12-12T10:20:44.028Z,2.05
2017-12-12T10:23:11.939Z,7.15
2017-12-12T10:25:40.552Z,2.60
2017-12-12T10:28:08.033Z,3.12
2017-12-12T10:30:35.542Z,4.30
2017-12-12T10:33:03.811Z,2.28
2017-12-12T10:35:32.842Z,2.65
2017-12-12T10:38:00.339Z,2.47
2017-12-12T10:40:29.704Z,2.15
2017-12-12T10:42:57.775Z,2.65
2017-12-12T10:45:25.323Z,3.03
2017-12-12T10:47:53.570Z,3.72
2017-12-12T10:50:21.068Z,2.87
2017-12-12T10:52:49.315Z,3.12
2017-12-12T10:55:16.800Z,3.87
2017-12-12T10:57:45.071Z,2.75
2017-12-12T11:00:12.544Z,2.15
2017-12-12T11:02:40.820Z,3.80
2017-12-12T11:05:08.409Z,2.78
2017-12-12T11:07:35.948Z,2.22
2017-12-12T11:10:04.205Z,3.45
2017-12-12T11:12:31.785Z,4.00
2017-12-12T11:14:59.394Z,3.12
2017-12-12T11:17:27.224Z,3.37
2017-12-12T11:19:54.758Z,3.30
2017-12-12T11:22:22.272Z,6.82
2017-12-12T11:24:50.524Z,3.03
2017-12-12T11:27:18.021Z,3.00
2017-12-12T11:29:45.517Z,3.12
2017-12-12T11:32:13.077Z,5.00
2017-12-12T11:34:40.588Z,4.82
2017-12-12T11:37:08.854Z,2.62
2017-12-12T11:39:36.437Z,4.85
2017-12-12T11:42:04.745Z,8.35
2017-12-12T11:44:32.306Z,4.85
2017-12-12T11:47:00.704Z,6.30
2017-12-12T11:49:28.184Z,5.40
2017-12-12T11:51:55.747Z,7.90
2017-12-12T11:54:23.204Z,7.78
2017-12-12T11:56:50.714Z,7.18
2017-12-12T11:59:19.730Z,8.30
2017-12-12T12:01:47.986Z,4.37
2017-12-12T12:04:15.485Z,7.95
2017-12-12T12:06:42.991Z,5.40
2017-12-12T12:09:10.521Z,8.37
2017-12-12T12:11:38.010Z,6.40
2017-12-12T12:14:05.520Z,8.18
2017-12-12T12:16:33.811Z,6.28
2017-12-12T12:19:02.080Z,5.85
2017-12-12T12:21:30.352Z,7.68
2017-12-12T12:23:57.866Z,6.37
2017-12-12T12:26:25.369Z,5.37
2017-12-12T12:28:52.988Z,5.85
2017-12-12T12:31:20.569Z,7.22
2017-12-12T12:33:48.093Z,6.50
2017-12-12T12:36:16.370Z,8.05
2017-12-12T12:38:44.634Z,7.22
2017-12-12T12:41:12.901Z,6.18
2017-12-12T12:43:40.420Z,6.95
2017-12-12T12:46:07.925Z,9.13
2017-12-12T12:48:36.267Z,7.90
2017-12-12T12:51:03.765Z,4.57
2017-12-12T12:53:31.294Z,4.82
2017-12-12T12:55:58.779Z,12.13
2017-12-12T12:58:26.270Z,5.35
2017-12-12T13:00:53.758Z,10.30
2017-12-12T13:03:22.034Z,4.30
2017-12-12T13:05:50.289Z,4.28
2017-12-12T13:08:17.810Z,4.85
2017-12-12T13:10:45.337Z,6.07
2017-12-12T13:13:13.598Z,6.30
2017-12-12T13:15:42.623Z,18.63
2017-12-12T13:18:10.896Z,5.83
2017-12-12T13:20:39.136Z,4.93
2017-12-12T13:23:06.702Z,8.73
2017-12-12T13:25:34.216Z,5.70
2017-12-12T13:28:01.705Z,8.47
2017-12-12T13:30:29.216Z,9.73
2017-12-12T13:32:57.552Z,6.33
2017-12-12T13:35:25.066Z,13.60
2017-12-12T13:37:53.328Z,7.90
2017-12-12T13:40:20.851Z,8.07
2017-12-12T13:42:48.340Z,5.65
2017-12-12T13:45:15.878Z,4.03
2017-12-12T13:47:43.398Z,6.03
2017-12-12T13:50:11.693Z,4.28
2017-12-12T13:52:39.989Z,5.30
2017-12-12T13:55:07.546Z,7.97
2017-12-12T13:57:35.604Z,10.60
2017-12-12T14:00:03.910Z,6.55
2017-12-12T14:02:31.444Z,6.03
2017-12-12T14:04:58.953Z,8.50
2017-12-12T14:07:26.448Z,7.55
2017-12-12T14:09:53.938Z,5.25
2017-12-12T14:12:22.758Z,7.35
2017-12-12T14:14:50.298Z,5.95
2017-12-12T14:17:18.558Z,5.57
2017-12-12T14:19:46.836Z,4.65
2017-12-12T14:22:14.309Z,8.10
2017-12-12T14:24:41.840Z,6.05
2017-12-12T14:27:09.386Z,8.02
2017-12-12T14:29:36.932Z,4.43
2017-12-12T14:32:05.196Z,6.30
2017-12-12T14:34:33.485Z,7.80
2017-12-12T14:37:01.821Z,7.90
2017-12-12T14:39:29.354Z,5.95
2017-12-12T14:41:56.869Z,11.50
2017-12-12T14:44:24.834Z,9.02
2017-12-12T14:46:52.336Z,9.52
2017-12-12T14:49:20.330Z,6.70
2017-12-12T14:51:47.881Z,10.82
2017-12-12T14:54:17.049Z,8.55
2017-12-12T14:56:45.735Z,9.50
2017-12-12T14:59:13.304Z,9.27
2017-12-12T15:01:40.827Z,8.40
2017-12-12T15:04:09.377Z,12.43
2017-12-12T15:06:36.931Z,8.35
2017-12-12T15:09:05.195Z,7.43
2017-12-12T15:11:32.744Z,7.93
2017-12-12T15:14:00.253Z,6.60
2017-12-12T15:16:27.784Z,9.18
2017-12-12T15:18:56.076Z,9.07
2017-12-12T15:21:24.344Z,5.25
2017-12-12T15:23:51.886Z,6.37
2017-12-12T15:26:19.394Z,5.47
2017-12-12T15:28:48.626Z,5.03
2017-12-12T15:31:16.145Z,6.22
2017-12-12T15:33:43.633Z,6.53
2017-12-12T15:36:11.459Z,8.15
2017-12-12T15:38:40.145Z,4.35
2017-12-12T15:41:07.693Z,6.87
2017-12-12T15:43:35.178Z,5.03
2017-12-12T15:46:02.691Z,7.10
2017-12-12T15:48:30.189Z,6.68
2017-12-12T15:50:57.809Z,7.45
2017-12-12T15:53:26.685Z,8.52
2017-12-12T15:55:54.981Z,10.98
2017-12-12T15:58:22.481Z,8.25
2017-12-12T16:00:50.044Z,8.05
2017-12-12T16:03:17.558Z,11.40
2017-12-12T16:05:45.808Z,9.93
2017-12-12T16:08:13.609Z,10.75
2017-12-12T16:10:41.873Z,8.00
2017-12-12T16:13:09.373Z,8.20
2017-12-12T16:15:36.931Z,7.72
2017-12-12T16:18:04.450Z,10.63
2017-12-12T16:20:31.946Z,5.68
2017-12-12T16:23:00.232Z,9.25
2017-12-12T16:25:28.480Z,10.90
2017-12-12T16:27:55.979Z,8.38
2017-12-12T16:30:23.516Z,8.13
2017-12-12T16:32:51.133Z,10.48
2017-12-12T16:35:18.723Z,7.28
2017-12-12T16:37:46.617Z,9.20
2017-12-12T16:40:14.156Z,9.95
2017-12-12T16:42:41.686Z,7.65
2017-12-12T16:45:09.277Z,13.77
2017-12-12T16:47:36.828Z,8.68
2017-12-12T16:50:04.329Z,7.05
2017-12-12T16:52:33.697Z,11.23
2017-12-12T16:55:01.967Z,6.80
2017-12-12T16:57:29.684Z,8.68
2017-12-12T16:59:57.169Z,7.45
2017-12-12T17:02:25.449Z,6.82
2017-12-12T17:04:53.707Z,7.70
2017-12-12T17:07:21.191Z,6.03
2017-12-12T17:09:49.440Z,7.82
2017-12-12T17:12:16.958Z,10.23
2017-12-12T17:14:44.449Z,5.87
2017-12-12T17:17:11.960Z,7.55
2017-12-12T17:19:40.209Z,7.72
2017-12-12T17:22:07.694Z,6.43
2017-12-12T17:24:35.310Z,6.85
2017-12-12T17:27:02.866Z,5.40
2017-12-12T17:29:30.357Z,6.65
2017-12-12T17:31:57.849Z,6.53
2017-12-12T17:34:25.461Z,4.55
2017-12-12T17:36:52.958Z,8.07
2017-12-12T17:39:20.498Z,7.45
2017-12-12T17:41:47.987Z,4.62
2017-12-12T17:44:16.215Z,5.62
2017-12-12T17:46:43.716Z,7.57
2017-12-12T17:49:11.265Z,4.60
2017-12-12T17:51:38.764Z,4.28
2017-12-12T17:54:07.070Z,11.07
2017-12-12T17:56:35.356Z,5.32
2017-12-12T17:59:02.978Z,4.50
2017-12-12T18:01:30.464Z,5.40
2017-12-12T18:03:59.472Z,3.30
2017-12-12T18:06:27.729Z,4.40
2017-12-12T18:08:55.272Z,6.30
2017-12-12T18:11:22.793Z,6.72
2017-12-12T18:13:51.060Z,5.07
2017-12-12T18:16:19.308Z,4.18
2017-12-12T18:18:46.805Z,5.12
2017-12-12T18:21:15.833Z,6.28
2017-12-12T18:23:43.373Z,3.90
2017-12-12T18:26:11.640Z,5.43
2017-12-12T18:28:39.956Z,6.10
2017-12-12T18:31:07.440Z,9.90
2017-12-12T18:33:35.095Z,6.28
2017-12-12T18:36:02.593Z,5.70
2017-12-12T18:38:30.116Z,4.85
2017-12-12T18:40:57.622Z,11.23
2017-12-12T18:43:25.141Z,10.10
2017-12-12T18:45:52.650Z,7.32
2017-12-12T18:48:20.260Z,10.07
2017-12-12T18:50:48.505Z,8.52
2017-12-12T18:53:15.992Z,8.48
2017-12-12T18:55:44.262Z,15.45
2017-12-12T18:58:12.531Z,10.60
2017-12-12T19:00:40.141Z,7.30
2017-12-12T19:03:07.631Z,9.05
2017-12-12T19:05:35.228Z,9.30
2017-12-12T19:08:03.510Z,8.95
2017-12-12T19:10:31.009Z,10.32
2017-12-12T19:12:58.492Z,9.80
2017-12-12T19:15:26.001Z,9.68
2017-12-12T19:17:54.253Z,11.15
2017-12-12T19:20:22.554Z,10.82
2017-12-12T19:22:50.126Z,12.57
2017-12-12T19:25:17.658Z,9.25
2017-12-12T19:27:45.189Z,10.88
2017-12-12T19:30:13.479Z,10.32
2017-12-12T19:32:41.564Z,12.93
2017-12-12T19:35:09.087Z,10.30
2017-12-12T19:37:37.387Z,14.25
2017-12-12T19:40:04.894Z,11.52
2017-12-12T19:42:32.452Z,9.27
2017-12-12T19:45:00.543Z,17.20
2017-12-12T19:47:28.420Z,13.60
2017-12-12T19:49:57.357Z,12.13
2017-12-12T19:52:24.860Z,10.82
2017-12-12T19:54:52.354Z,13.48
2017-12-12T19:57:19.864Z,14.57
2017-12-12T19:59:47.440Z,11.98
2017-12-12T20:02:14.970Z,11.02
2017-12-12T20:04:42.568Z,10.60
2017-12-12T20:07:10.052Z,9.65
2017-12-12T20:09:37.554Z,10.73
2017-12-12T20:12:05.845Z,16.87
2017-12-12T20:14:35.579Z,10.43
2017-12-12T20:17:03.132Z,11.02
2017-12-12T20:19:30.661Z,13.40
2017-12-12T20:21:58.851Z,15.88
2017-12-12T20:24:27.127Z,13.95
2017-12-12T20:26:54.663Z,13.05
2017-12-12T20:29:22.201Z,12.13
2017-12-12T20:31:49.783Z,16.40
2017-12-12T20:34:17.262Z,17.77
2017-12-12T20:36:44.787Z,13.85
2017-12-12T20:39:12.298Z,12.93
2017-12-12T20:41:40.591Z,10.77
2017-12-12T20:44:08.216Z,12.68
2017-12-12T20:46:35.736Z,15.00
2017-12-12T20:49:03.314Z,12.32
2017-12-12T20:51:30.859Z,11.82
2017-12-12T20:53:59.508Z,12.20
2017-12-12T20:56:27.067Z,15.43
2017-12-12T20:58:54.585Z,13.43
2017-12-12T21:01:22.327Z,14.05
2017-12-12T21:03:49.809Z,12.63
2017-12-12T21:06:18.075Z,30.35
2017-12-12T21:08:46.325Z,14.25
2017-12-12T21:11:14.160Z,11.77
2017-12-12T21:13:41.692Z,12.00
2017-12-12T21:16:09.952Z,16.42
2017-12-12T21:18:37.522Z,10.15
2017-12-12T21:21:05.804Z,13.07
2017-12-12T21:23:33.323Z,12.63
2017-12-12T21:26:01.119Z,15.70
2017-12-12T21:28:29.540Z,13.10
2017-12-12T21:30:57.813Z,13.02
2017-12-12T21:33:26.342Z,11.30
2017-12-12T21:35:53.841Z,11.25
2017-12-12T21:38:21.374Z,11.30
2017-12-12T21:40:48.877Z,12.73
2017-12-12T21:43:16.565Z,12.15
2017-12-12T21:45:44.234Z,12.55
2017-12-12T21:48:12.523Z,8.77
2017-12-12T21:50:40.025Z,16.58
2017-12-12T21:53:07.515Z,12.77
2017-12-12T21:55:36.178Z,11.95
2017-12-12T21:58:03.757Z,13.07
2017-12-12T22:00:31.311Z,11.00
2017-12-12T22:02:58.836Z,9.63
2017-12-12T22:05:27.172Z,14.60
2017-12-12T22:07:54.872Z,7.28
2017-12-12T22:10:23.288Z,9.80
2017-12-12T22:12:51.921Z,11.55
2017-12-12T22:15:20.179Z,10.13
2017-12-12T22:17:47.697Z,10.38
2017-12-12T22:20:15.221Z,13.62
2017-12-12T22:22:43.472Z,13.70
2017-12-12T22:25:10.995Z,8.95
2017-12-12T22:27:38.483Z,12.45
2017-12-12T22:30:06.021Z,13.38
2017-12-12T22:32:34.269Z,12.43
2017-12-12T22:35:01.761Z,9.48
2017-12-12T22:37:30.053Z,13.20
2017-12-12T22:39:57.562Z,11.05
2017-12-12T22:42:25.056Z,15.90
2017-12-12T22:44:53.308Z,10.05
2017-12-12T22:47:20.820Z,14.50
2017-12-12T22:49:48.320Z,11.93
2017-12-12T22:52:15.841Z,16.42
2017-12-12T22:54:44.094Z,15.40
2017-12-12T22:57:12.304Z,14.95
2017-12-12T22:59:41.089Z,11.45
2017-12-12T23:02:08.911Z,14.75
2017-12-12T23:04:37.295Z,9.40
2017-12-12T23:07:04.802Z,12.95
2017-12-12T23:09:32.385Z,11.05
2017-12-12T23:12:00.143Z,12.52
2017-12-12T23:14:28.656Z,11.80
2017-12-12T23:16:56.211Z,16.00
2017-12-12T23:19:25.551Z,14.77
2017-12-12T23:21:55.072Z,15.95
2017-12-12T23:24:22.808Z,19.23
2017-12-12T23:26:50.325Z,18.83
2017-12-12T23:29:17.867Z,18.65
2017-12-12T23:31:45.625Z,15.68
2017-12-12T23:34:13.109Z,16.48
2017-12-12T23:36:41.391Z,11.20
2017-12-12T23:39:10.070Z,14.95
2017-12-12T23:41:38.420Z,15.73
2017-12-12T23:44:06.656Z,23.92
2017-12-12T23:46:34.441Z,15.45
2017-12-12T23:49:02.127Z,13.65
2017-12-12T23:51:29.608Z,18.90
2017-12-12T23:53:57.142Z,14.82
2017-12-12T23:56:24.633Z,13.95
2017-12-12T23:58:52.152Z,12.55
